createdAt,value
2023-03-23T15:59:54.663Z,19.11
2023-03-23T16:03:02.455Z,19.10
2023-03-23T16:06:04.846Z,19.09
2023-03-23T16:09:11.076Z,19.05
2023-03-23T16:12:13.627Z,19.03
2023-03-23T16:15:16.706Z,19.02
2023-03-23T16:18:21.832Z,19.06
2023-03-23T16:21:24.164Z,19.08
2023-03-23T16:24:26.501Z,19.09
2023-03-23T16:27:28.614Z,19.05
2023-03-23T16:30:35.948Z,19.05
2023-03-23T16:33:38.377Z,19.05
2023-03-23T16:36:40.970Z,19.03
2023-03-23T16:39:43.295Z,19.03
2023-03-23T16:42:45.776Z,19.02
2023-03-23T16:45:48.621Z,19.02
2023-03-23T16:48:51.342Z,19.05
2023-03-23T16:51:53.939Z,19.06
2023-03-23T16:54:56.054Z,19.05
2023-03-23T16:58:13.136Z,19.05
2023-03-23T17:01:19.718Z,19.03
2023-03-23T17:04:21.960Z,19.03
2023-03-23T17:07:24.745Z,19.01
2023-03-23T17:10:28.540Z,19.01
2023-03-23T17:13:30.706Z,19.00
2023-03-23T17:16:32.845Z,19.01
2023-03-23T17:19:35.246Z,18.97
2023-03-23T17:22:39.277Z,19.03
2023-03-23T17:25:41.849Z,18.99
2023-03-23T17:28:44.220Z,18.98
2023-03-23T17:31:46.400Z,18.98
2023-03-23T17:34:48.612Z,18.99
2023-03-23T17:37:50.853Z,18.97
2023-03-23T17:41:00.560Z,18.96
2023-03-23T17:44:02.620Z,18.96
2023-03-23T17:47:04.759Z,18.94
2023-03-23T17:50:11.496Z,18.93
2023-03-23T17:53:14.992Z,18.94
2023-03-23T17:56:17.243Z,18.93
2023-03-23T17:59:19.972Z,18.92
2023-03-23T18:02:22.177Z,18.93
2023-03-23T18:05:24.633Z,18.94
2023-03-23T18:08:27.879Z,18.91
2023-03-23T18:11:30.784Z,18.92
2023-03-23T18:14:32.982Z,18.88
2023-03-23T18:17:35.572Z,18.91
2023-03-23T18:20:37.771Z,18.91
2023-03-23T18:23:49.059Z,18.88
2023-03-23T18:27:00.163Z,18.88
2023-03-23T18:30:03.121Z,18.88
2023-03-23T18:33:05.295Z,18.87
2023-03-23T18:36:08.224Z,18.84
2023-03-23T18:39:12.010Z,18.83
2023-03-23T18:42:14.329Z,18.84
2023-03-23T18:45:16.716Z,18.81
2023-03-23T18:48:19.447Z,18.82
2023-03-23T18:51:21.722Z,18.82
2023-03-23T18:54:23.750Z,18.80
2023-03-23T18:57:26.040Z,18.81
2023-03-23T19:00:29.525Z,18.80
2023-03-23T19:03:31.705Z,18.81
2023-03-23T19:06:34.760Z,18.78
2023-03-23T19:09:37.057Z,18.76
2023-03-23T19:12:39.229Z,18.76
2023-03-23T19:15:41.420Z,18.79
2023-03-23T19:18:43.638Z,18.79
2023-03-23T19:21:47.250Z,18.74
2023-03-23T19:24:49.477Z,18.72
2023-03-23T19:30:58.082Z,18.73
2023-03-23T19:34:00.802Z,18.73
2023-03-23T19:37:05.996Z,18.73
2023-03-23T19:40:31.662Z,18.72
2023-03-23T19:43:37.620Z,18.72
2023-03-23T19:46:39.852Z,18.76
2023-03-23T19:49:42.018Z,18.77
2023-03-23T19:52:44.792Z,18.77
2023-03-23T19:55:47.983Z,18.78
2023-03-23T19:58:50.766Z,18.76
2023-03-23T20:01:54.641Z,18.74
2023-03-23T20:04:57.027Z,18.76
2023-03-23T20:07:59.100Z,18.74
2023-03-23T20:11:09.548Z,18.73
2023-03-23T20:14:11.832Z,18.71
2023-03-23T20:17:14.599Z,18.71
2023-03-23T20:20:17.224Z,18.69
2023-03-23T20:23:19.343Z,18.71
2023-03-23T20:26:28.810Z,18.68
2023-03-23T20:29:33.483Z,18.68
2023-03-23T20:32:37.184Z,18.70
2023-03-23T20:35:39.338Z,18.67
2023-03-23T20:38:43.043Z,18.66
2023-03-23T20:41:47.488Z,18.67
2023-03-23T20:44:49.751Z,18.65
2023-03-23T20:47:53.280Z,18.65
2023-03-23T20:50:55.877Z,18.63
2023-03-23T20:53:57.894Z,18.64
2023-03-23T20:57:00.453Z,18.62
2023-03-23T21:00:06.445Z,18.61
2023-03-23T21:03:11.405Z,18.63
2023-03-23T21:06:13.586Z,18.62
2023-03-23T21:09:17.277Z,18.62
2023-03-23T21:12:19.449Z,18.62
2023-03-23T21:15:21.603Z,18.58
2023-03-23T21:18:23.838Z,18.59
2023-03-23T21:21:27.327Z,18.56
2023-03-23T21:24:31.360Z,18.55
2023-03-23T21:27:34.635Z,18.57
2023-03-23T21:30:36.782Z,18.56
2023-03-23T21:33:38.882Z,18.55
2023-03-23T21:36:41.770Z,18.56
2023-03-23T21:39:44.216Z,18.54
2023-03-23T21:42:48.837Z,18.54
2023-03-23T21:45:55.935Z,18.53
2023-03-23T21:48:59.204Z,18.52
2023-03-23T21:52:02.360Z,18.52
2023-03-23T21:55:05.773Z,18.52
2023-03-23T21:58:09.502Z,18.50
2023-03-23T22:01:12.912Z,18.49
2023-03-23T22:04:14.996Z,18.52
2023-03-23T22:07:17.037Z,18.48
2023-03-23T22:10:19.566Z,18.49
2023-03-23T22:13:21.781Z,18.47
2023-03-23T22:16:24.792Z,18.50
2023-03-23T22:19:27.244Z,18.50
2023-03-23T22:22:29.224Z,18.49
2023-03-23T22:25:33.464Z,18.49
2023-03-23T22:28:37.082Z,18.47
2023-03-23T22:31:40.851Z,18.48
2023-03-23T22:34:43.430Z,18.48
2023-03-23T22:37:45.469Z,18.49
2023-03-23T22:40:58.258Z,18.49
2023-03-23T22:44:00.906Z,18.48
2023-03-23T22:47:03.006Z,18.48
2023-03-23T22:50:07.828Z,18.47
2023-03-23T22:53:09.950Z,18.44
2023-03-23T22:56:12.441Z,18.46
2023-03-23T22:59:14.514Z,18.44
2023-03-23T23:02:16.555Z,18.43
2023-03-23T23:05:18.715Z,18.42
2023-03-23T23:08:21.417Z,18.44
2023-03-23T23:11:25.232Z,18.43
2023-03-23T23:14:27.233Z,18.43
2023-03-23T23:17:31.745Z,18.42
2023-03-23T23:20:34.691Z,18.42
2023-03-23T23:23:37.410Z,18.41
2023-03-23T23:26:39.479Z,18.41
2023-03-23T23:29:41.571Z,18.40
2023-03-23T23:32:44.593Z,18.42
2023-03-23T23:35:47.772Z,18.39
2023-03-23T23:38:50.022Z,18.39
2023-03-23T23:41:52.103Z,18.38
2023-03-23T23:44:54.164Z,18.40
2023-03-23T23:47:56.565Z,18.39
2023-03-23T23:50:58.645Z,18.38
2023-03-23T23:54:01.419Z,18.38
2023-03-23T23:57:05.345Z,18.38
